Item Display Status Humidity-temperature Sensor

Elevation Above Sea Level: 3 m

 

Deployed Sensor

  • Serial Number: 61247759
  • NDBC Property Number: 37435
  • Start Date: 12/24/2015 (10:50:11 Z)
  • End Date: 3/13/2016 (15:25:00 Z)
Relative Humidity [%]     6 entries per hour
Showing data from 4/13/2016 (23:50:00 Z) to 4/12/2016 (00:00:01 Z)
Previous Next [ Day | 3-Days | 7-Days ]
First Last
Prev [ Day | 3-Days | 7-Days ] Next
First Last

Start Time:     :
End Time:     :     
Time (in GMT) :00 :50 :40 :30 :20 :10
Previous Next [ Day | 3-Days | 7-Days ]
First Last
Prev [ Day | 3-Days | 7-Days ] Next
First Last


123 => good data
MM => data is determined as missing
-- => data not received/configured
Back to Top Back to Top
4/14/2016 00:00 to 23:10 -- 87.48 87.57 88.12 88.20 87.86
4/13/2016 23:00 to 22:10 87.63 86.82 86.61 88.05 86.93 87.35
4/13/2016 22:00 to 21:10 88.32 88.27 88.25 89.30 87.94 89.21
4/13/2016 21:00 to 20:10 89.04 88.10 87.61 87.11 88.36 88.09
4/13/2016 20:00 to 19:10 88.21 88.75 88.18 87.26 88.60 89.36
4/13/2016 19:00 to 18:10 89.36 87.88 88.62 88.91 89.39 88.75
4/13/2016 18:00 to 17:10 89.87 88.69 88.23 89.17 87.86 88.82
4/13/2016 17:00 to 16:10 89.06 89.48 89.47 89.58 89.13 90.55
4/13/2016 16:00 to 15:10 89.10 90.41 90.98 89.87 89.50 89.13
4/13/2016 15:00 to 14:10 89.25 89.76 90.18 89.39 89.48 89.71
4/13/2016 14:00 to 13:10 89.85 89.39 90.52 90.24 89.54 87.59
4/13/2016 13:00 to 12:10 87.42 89.25 90.15 89.76 89.72 91.22
4/13/2016 12:00 to 11:10 90.09 91.47 91.75 91.14 90.37 91.57
4/13/2016 11:00 to 10:10 92.50 91.42 90.76 90.57 91.25 91.38
4/13/2016 10:00 to 9:10 91.25 90.26 90.33 89.74 90.81 89.83
4/13/2016 09:00 to 8:10 90.83 90.99 90.52 90.53 90.15 90.52
4/13/2016 08:00 to 7:10 91.71 91.14 88.90 88.91 90.50 90.99
4/13/2016 07:00 to 6:10 89.17 87.00 87.31 87.72 86.91 88.60
4/13/2016 06:00 to 5:10 89.39 89.37 87.13 87.92 88.44 89.43
4/13/2016 05:00 to 4:10 86.87 86.70 86.80 86.19 86.54 86.06
4/13/2016 04:00 to 3:10 88.07 86.35 88.05 87.20 86.32 88.27
4/13/2016 03:00 to 2:10 85.38 87.83 88.07 88.21 87.50 88.84
4/13/2016 02:00 to 1:10 89.56 89.10 90.06 89.60 88.88 88.91
4/13/2016 01:00 to 0:10 88.58 88.10 88.69 89.15 89.65 88.23
4/13/2016 00:00 to 23:10 87.57 87.96 86.96 86.78 86.12 86.45
4/12/2016 23:00 to 22:10 86.52 85.88 86.58 86.76 85.69 86.45
4/12/2016 22:00 to 21:10 87.11 87.53 87.04 88.25 89.08 88.77
4/12/2016 21:00 to 20:10 88.66 89.02 88.14 88.79 88.66 88.71
4/12/2016 20:00 to 19:10 88.64 89.36 90.02 90.31 88.95 90.52
4/12/2016 19:00 to 18:10 90.85 89.82 89.71 90.79 91.62 91.33
4/12/2016 18:00 to 17:10 91.29 92.36 92.56 92.61 92.30 92.41
4/12/2016 17:00 to 16:10 90.11 90.02 88.91 88.91 89.25 90.22
4/12/2016 16:00 to 15:10 90.99 90.06 90.53 90.17 90.26 89.34
4/12/2016 15:00 to 14:10 89.45 90.66 90.66 90.29 89.61 90.29
4/12/2016 14:00 to 13:10 90.77 90.13 90.63 90.18 91.57 91.73
4/12/2016 13:00 to 12:10 91.03 91.14 91.01 90.17 90.98 91.49
4/12/2016 12:00 to 11:10 91.33 91.69 90.76 90.98 90.70 89.69
4/12/2016 11:00 to 10:10 89.91 90.00 89.28 90.90 91.57 91.01
4/12/2016 10:00 to 9:10 91.42 90.04 91.16 89.26 88.31 90.17
4/12/2016 09:00 to 8:10 89.19 89.19 88.99 89.34 90.02 91.27
4/12/2016 08:00 to 7:10 89.78 89.76 91.55 90.70 89.82 89.67
4/12/2016 07:00 to 6:10 89.63 89.32 89.25 90.02 89.56 88.55
4/12/2016 06:00 to 5:10 88.55 88.67 89.17 89.26 88.34 88.64
4/12/2016 05:00 to 4:10 87.63 87.20 86.67 86.94 86.70 85.99
4/12/2016 04:00 to 3:10 86.54 85.80 85.64 85.54 85.38 85.77
4/12/2016 03:00 to 2:10 85.40 84.79 84.92 85.38 84.66 84.66
4/12/2016 02:00 to 1:10 84.48 84.88 84.40 84.33 84.18 84.22
4/12/2016 01:00 to 0:10 83.96 83.46 84.11 83.69 82.95 82.34

 

 

 

Air Temperature [°C]     6 entries per hour
Showing data from 12/5/2016 (10:00:00 Z) to 12/4/2016 (00:00:01 Z)
Previous Next [ Day | 3-Days | 7-Days ]
First Last
Prev [ Day | 3-Days | 7-Days ] Next
First Last

Start Time:     :
End Time:     :     
Time (in GMT) :00 :50 :40 :30 :20 :10
Previous Next [ Day | 3-Days | 7-Days ]
First Last
Prev [ Day | 3-Days | 7-Days ] Next
First Last


123 => good data
MM => data is determined as missing
-- => data not received/configured
Back to Top Back to Top
12/5/2016 10:00 to 9:10 21.71 21.68 21.71 21.73 21.68 21.75
12/5/2016 09:00 to 8:10 21.75 21.70 21.72 21.70 21.76 21.75
12/5/2016 08:00 to 7:10 21.73 21.78 21.78 21.76 21.80 21.77
12/5/2016 07:00 to 6:10 21.81 21.79 21.84 21.80 21.75 21.81
12/5/2016 06:00 to 5:10 21.82 21.85 21.86 21.85 21.87 21.87
12/5/2016 05:00 to 4:10 21.88 21.89 21.88 21.89 21.89 21.92
12/5/2016 04:00 to 3:10 21.91 21.93 21.97 21.98 22.01 22.00
12/5/2016 03:00 to 2:10 22.03 22.04 22.04 22.05 22.09 22.05
12/5/2016 02:00 to 1:10 22.03 22.04 22.06 22.06 22.14 22.20
12/5/2016 01:00 to 0:10 22.15 22.18 22.25 22.29 22.29 22.41
12/5/2016 00:00 to 23:10 22.47 22.66 22.69 22.75 22.83 22.92
12/4/2016 23:00 to 22:10 22.99 22.99 23.02 23.09 23.12 23.31
12/4/2016 22:00 to 21:10 23.24 23.27 23.32 23.22 23.39 23.33
12/4/2016 21:00 to 20:10 23.27 23.39 23.21 23.41 23.03 23.17
12/4/2016 20:00 to 19:10 23.06 23.30 23.03 23.24 23.18 23.11
12/4/2016 19:00 to 18:10 23.41 23.17 23.44 23.50 23.49 23.59
12/4/2016 18:00 to 17:10 23.62 23.61 23.76 23.59 23.42 23.31
12/4/2016 17:00 to 16:10 23.02 23.13 23.13 23.05 22.97 22.80
12/4/2016 16:00 to 15:10 22.35 22.16 22.00 21.93 21.69 21.44
12/4/2016 15:00 to 14:10 21.31 21.36 21.40 21.65 21.68 21.71
12/4/2016 14:00 to 13:10 21.71 21.78 21.74 21.68 21.64 21.61
12/4/2016 13:00 to 12:10 21.52 21.50 21.48 21.43 21.52 21.50
12/4/2016 12:00 to 11:10 21.44 21.31 21.21 21.17 21.28 21.26
12/4/2016 11:00 to 10:10 21.24 21.28 21.27 21.21 21.31 21.43
12/4/2016 10:00 to 9:10 21.53 21.81 21.77 21.71 21.67 21.70
12/4/2016 09:00 to 8:10 21.72 21.75 21.83 21.22 21.37 21.85
12/4/2016 08:00 to 7:10 21.85 21.85 21.81 21.70 21.78 21.77
12/4/2016 07:00 to 6:10 21.79 21.81 21.86 21.88 21.90 21.92
12/4/2016 06:00 to 5:10 21.94 21.95 21.98 21.98 21.94 21.90
12/4/2016 05:00 to 4:10 21.93 21.92 21.94 21.94 21.95 21.95
12/4/2016 04:00 to 3:10 21.96 21.96 21.97 21.99 21.98 22.00
12/4/2016 03:00 to 2:10 22.00 22.01 22.03 22.05 22.05 22.05
12/4/2016 02:00 to 1:10 -- -- -- -- -- --
12/4/2016 01:00 to 0:10 22.06 22.09 22.13 22.15 22.17 22.23